Airfield :
LOGIN :

Register | Disclaimer

   EN    FR    IT 

 










Legend :    VFR   Marginal VFR   IFR   Intensive IFR   Very Intensive IFR
Visi :
Ceiling :
>= 8 km
>= 3000ft
5 to 8 km
1000 to 3000 ft
1500m to 5 km
500 to 1000 ft
800 to 1500m
200 to 500 ft
< 800m
< 200 ft
Symbols :   Thunderstorms  Fog  Heavy snow  Heavy precipitations  Wind > 20 kt
SIGMETs :     Misc.  Thunderstorms  Icing  Turbulence  Mountain Waves  Volcanic Ashes







- Airport Elevation : 183 ft
- IATA code : HAJ


EDDV - Hanover/Langenhagen Int.

CURRENT METAR :
  • 190850Z 05011KT 9999 SCT015 BKN035 05/02 Q1023 NOSIG

EXPIRED METARs :
  • 190820Z 05010KT 9999 FEW015 05/03 Q1023 NOSIG
  • 190750Z 04009KT 9999 FEW015 05/03 Q1023 NOSIG
  • 190720Z 05010KT 9999 SCT015 05/02 Q1023 NOSIG
  • 190650Z 05009KT 9999 SCT015 05/03 Q1023 NOSIG
  • 190620Z 05010KT 9999 FEW013 BKN017 05/03 Q1023 NOSIG
  • 190550Z 05010KT 9999 FEW013 BKN017 05/03 Q1023 NOSIG

TAF TAF EDDV
Valid from the 19 at 06:00 until the 20 at 06:00 UTC


190500Z 1906/2006 06009KT 9999 SCT015 BKN030
TEMPO 1906/1915 BKN012
PROB30
TEMPO 1906/1908 BKN008
BECMG 1907/1910 08015G25KT
TEMPO 1915/1921 3500 -RASN BKN006
TEMPO 1921/2006 2500 -SN BKN006
No reported NOTAMs for that airfield.
1 SIGMET reported for the Bremen FIR (EDWW) :
 
Severe icing
EDWW SIGMET 1 VALID 190845/191045 EDZH
EDWW BREMEN FIR SEV ICE OBS S OF N5230 AND E OF E00840 2000FT/FL060 STNR WKN=



MET'MAP, your aeronautical weather chart ! - Copyright ORBIFLY December 2007 - Disclaimer

ORBIFLY MET'MAP TEAM :

Programming & Development : Alexandra Zaïnal
Concept & Development : Baudouin d'Aumeries
Co-Development & Prog : Marc-Olivier Méhu
Technical & hardware support : Manuel Goepfert

Contact : metmap@orbifly.com




SOURCES & CREDITS :

   NOAA